createdAt,value
2023-01-17T00:08:37.450Z,15.00
2023-01-17T00:19:01.064Z,14.80
2023-01-17T00:29:06.071Z,14.30
2023-01-17T00:39:11.749Z,15.30
2023-01-17T00:49:35.554Z,16.50
2023-01-17T00:59:58.203Z,16.30
2023-01-17T01:10:20.504Z,15.40
2023-01-17T01:20:42.802Z,13.00
2023-01-17T01:31:05.062Z,11.10
2023-01-17T01:41:08.919Z,11.70
2023-01-17T01:51:17.874Z,9.40
2023-01-17T02:01:23.020Z,10.70
2023-01-17T02:11:27.935Z,6.30
2023-01-17T02:21:34.880Z,5.30
2023-01-17T02:32:03.565Z,4.40
2023-01-17T02:42:13.062Z,3.90
2023-01-17T02:52:22.687Z,4.00
2023-01-17T03:02:31.153Z,8.00
2023-01-17T03:12:37.911Z,5.00
2023-01-17T03:22:41.557Z,4.90
2023-01-17T03:32:47.082Z,5.30
2023-01-17T03:42:50.709Z,6.10
2023-01-17T03:52:54.210Z,5.60
2023-01-17T04:02:57.677Z,5.00
2023-01-17T04:13:01.405Z,4.90
2023-01-17T04:23:05.815Z,5.10
2023-01-17T04:33:09.412Z,5.70
2023-01-17T04:43:13.008Z,5.30
2023-01-17T04:53:16.792Z,7.90
2023-01-17T05:03:21.941Z,7.00
2023-01-17T05:13:25.511Z,8.70
2023-01-17T05:23:29.204Z,7.80
2023-01-17T05:33:32.779Z,9.10
2023-01-17T05:43:36.293Z,10.20
2023-01-17T05:53:42.180Z,9.90
2023-01-17T06:03:45.877Z,13.00
2023-01-17T06:13:49.517Z,13.90
2023-01-17T06:23:55.558Z,14.50
2023-01-17T06:34:12.745Z,15.60
2023-01-17T06:44:16.425Z,16.00
2023-01-17T06:54:20.111Z,13.70
2023-01-17T07:04:23.850Z,16.00
2023-01-17T07:14:29.518Z,15.50
2023-01-17T07:24:38.395Z,19.00
2023-01-17T07:34:43.444Z,22.50
2023-01-17T07:44:47.202Z,24.20
2023-01-17T07:54:50.834Z,25.40
2023-01-17T08:04:54.432Z,22.10
2023-01-17T08:14:57.968Z,24.50
2023-01-17T08:25:05.253Z,24.10
2023-01-17T08:35:10.067Z,23.10
2023-01-17T08:45:16.905Z,21.70
2023-01-17T08:55:21.876Z,21.30
2023-01-17T09:05:28.074Z,21.10
2023-01-17T09:15:31.752Z,22.40
2023-01-17T09:25:35.864Z,20.10
2023-01-17T09:35:42.950Z,21.20
2023-01-17T09:45:48.376Z,20.40
2023-01-17T09:55:52.382Z,17.80
2023-01-17T10:06:24.597Z,18.50
2023-01-17T10:16:40.854Z,18.10
2023-01-17T10:26:49.656Z,18.10
2023-01-17T10:37:00.718Z,18.40
2023-01-17T10:47:10.455Z,18.30
2023-01-17T10:57:23.559Z,22.00
2023-01-17T11:07:29.444Z,18.30
2023-01-17T11:17:46.600Z,19.50
2023-01-17T11:28:04.411Z,20.80
2023-01-17T11:38:19.676Z,20.20
2023-01-17T11:48:24.626Z,20.60
2023-01-17T11:58:29.101Z,21.10
2023-01-17T12:08:42.628Z,19.70
2023-01-17T12:18:58.893Z,19.10
2023-01-17T12:29:24.915Z,19.20
2023-01-17T12:39:57.282Z,20.10
2023-01-17T12:50:28.874Z,24.90
2023-01-17T13:00:37.216Z,24.70
2023-01-17T13:10:45.279Z,22.70
2023-01-17T13:21:07.908Z,19.70
2023-01-17T13:31:23.863Z,20.70
2023-01-17T13:41:56.591Z,23.70
2023-01-17T13:52:19.219Z,22.30
2023-01-17T14:02:39.315Z,21.00
2023-01-17T14:12:44.715Z,19.40
2023-01-17T14:22:56.208Z,20.20
2023-01-17T14:33:05.253Z,19.10
2023-01-17T14:43:19.001Z,21.50
2023-01-17T14:53:28.864Z,26.40
2023-01-17T15:03:44.465Z,28.30
2023-01-17T15:13:57.962Z,26.00
2023-01-17T15:24:08.726Z,35.80
2023-01-17T15:34:46.990Z,30.70
2023-01-17T15:44:55.812Z,27.10
2023-01-17T15:55:12.736Z,26.30
2023-01-17T16:05:23.287Z,24.10
2023-01-17T16:15:30.769Z,27.70
2023-01-17T16:25:48.964Z,27.40
2023-01-17T16:35:55.150Z,24.90
2023-01-17T16:45:59.212Z,29.10
2023-01-17T16:56:22.518Z,26.10
2023-01-17T17:06:33.284Z,25.00
2023-01-17T17:16:39.686Z,27.10
2023-01-17T17:26:49.338Z,30.00
2023-01-17T17:36:56.230Z,33.00
2023-01-17T17:47:05.176Z,33.60
2023-01-17T17:57:13.988Z,27.90
2023-01-17T18:07:23.458Z,28.40
2023-01-17T18:17:27.508Z,28.50
2023-01-17T18:27:34.251Z,25.90
2023-01-17T18:37:46.071Z,29.30
2023-01-17T18:47:54.044Z,27.20
2023-01-17T18:58:03.834Z,31.30
2023-01-17T19:08:16.705Z,27.20
2023-01-17T19:18:23.485Z,28.80
2023-01-17T19:28:34.126Z,33.60
2023-01-17T19:38:44.060Z,31.10
2023-01-17T19:48:58.667Z,37.60
2023-01-17T19:59:10.975Z,30.70
2023-01-17T20:09:19.977Z,29.60
2023-01-17T20:19:25.465Z,27.60
2023-01-17T20:29:30.172Z,27.70
2023-01-17T20:39:47.756Z,31.50
2023-01-17T20:50:03.486Z,35.60
2023-01-17T21:00:08.684Z,34.80
2023-01-17T21:10:13.253Z,42.30
2023-01-17T21:20:27.966Z,34.10
2023-01-17T21:30:37.810Z,32.20
2023-01-17T21:40:48.189Z,34.40
2023-01-17T21:50:55.425Z,43.60
2023-01-17T22:01:07.862Z,39.00
2023-01-17T22:11:15.779Z,39.60
2023-01-17T22:21:24.845Z,62.20
2023-01-17T22:31:31.841Z,69.00
2023-01-17T22:41:39.532Z,57.30
2023-01-17T22:51:44.527Z,77.60
2023-01-17T23:01:48.397Z,81.60
2023-01-17T23:11:55.402Z,67.70
2023-01-17T23:22:16.359Z,60.10
2023-01-17T23:32:22.919Z,55.60
2023-01-17T23:42:45.639Z,52.80
2023-01-17T23:52:51.432Z,53.90
